Time;durP1;ratioP1;P1;durP2;ratioP2;P2;SDS_P1;SDS_P2;PMS_P1;PMS_P2;Temp;Humidity;BMP_temperature;BMP_pressure;BME280_temperature;BME280_humidity;BME280_pressure;Samples;Min_cycle;Max_cycle;Signal;HPM_P1;HPM_P2
2021/09/19 00:01:58;;;;;;;2.17;1.10;;;;;;;13.13;76.74;98668.96;1720481;83;21096;-70
2021/09/19 00:04:25;;;;;;;2.80;1.05;;;;;;;13.03;76.91;98663.73;1717834;83;21061;-70
2021/09/19 00:06:52;;;;;;;1.65;1.02;;;;;;;12.98;76.99;98661.94;1701422;83;21120;-70
2021/09/19 00:09:19;;;;;;;1.45;0.88;;;;;;;13.01;76.97;98667.33;1701640;83;21512;-70
2021/09/19 00:11:45;;;;;;;2.70;1.10;;;;;;;13.02;77.07;98660.75;1714096;83;21635;-70
2021/09/19 00:14:13;;;;;;;1.75;0.95;;;;;;;13.01;77.26;98662.67;1717662;83;21650;-70
2021/09/19 00:16:40;;;;;;;1.42;0.85;;;;;;;13.01;77.29;98665.41;1665559;85;21095;-70
2021/09/19 00:19:08;;;;;;;3.35;1.05;;;;;;;13.08;77.12;98660.30;1715586;82;21027;-70
2021/09/19 00:21:35;;;;;;;5.70;0.98;;;;;;;13.07;77.14;98671.56;1735738;82;21071;-70
2021/09/19 00:24:03;;;;;;;2.10;1.07;;;;;;;13.04;77.32;98668.88;1721781;82;21004;-70
2021/09/19 00:26:31;;;;;;;1.60;1.00;;;;;;;13.06;77.47;98669.38;1692857;83;21056;-70
2021/09/19 00:28:58;;;;;;;3.98;1.30;;;;;;;13.12;77.40;98671.44;1718135;82;21020;-70
2021/09/19 00:31:24;;;;;;;1.82;1.10;;;;;;;13.20;77.17;98672.05;1723654;82;21622;-70
2021/09/19 00:33:50;;;;;;;2.08;1.00;;;;;;;13.23;76.94;98672.78;1727371;82;21546;-70
2021/09/19 00:36:17;;;;;;;2.25;1.10;;;;;;;13.19;76.87;98663.59;1738322;82;21641;-70
2021/09/19 00:38:44;;;;;;;2.45;1.10;;;;;;;13.07;77.04;98666.91;1719368;82;21039;-70
2021/09/19 00:41:11;;;;;;;4.97;1.00;;;;;;;12.98;77.26;98675.05;1713793;82;21008;-70
2021/09/19 00:43:38;;;;;;;3.12;1.20;;;;;;;12.95;77.31;98670.77;1710709;82;21477;-70
2021/09/19 00:46:06;;;;;;;2.83;1.25;;;;;;;12.98;77.26;98671.50;1729614;82;21047;-70
2021/09/19 00:48:34;;;;;;;2.40;1.30;;;;;;;12.92;77.29;98670.84;1714918;82;21149;-70
2021/09/19 00:51:02;;;;;;;2.92;1.12;;;;;;;12.82;77.58;98667.56;1708127;84;21058;-70
2021/09/19 00:53:32;;;;;;;2.70;1.20;;;;;;;12.79;77.76;98668.16;1712436;82;21070;-70
2021/09/19 00:55:59;;;;;;;2.40;1.40;;;;;;;12.80;77.77;98675.23;1721056;82;21041;-70
2021/09/19 00:58:27;;;;;;;2.27;1.27;;;;;;;12.75;77.85;98676.75;1732501;82;21518;-70
2021/09/19 01:00:54;;;;;;;3.77;1.20;;;;;;;12.69;78.14;98669.78;1717555;82;21098;-70
2021/09/19 01:03:22;;;;;;;3.62;1.30;;;;;;;12.69;78.30;98673.88;1737659;82;21032;-70
2021/09/19 01:05:49;;;;;;;2.33;1.22;;;;;;;12.72;78.21;98688.27;1710195;84;21007;-70
2021/09/19 01:08:16;;;;;;;2.47;1.37;;;;;;;12.75;78.15;98689.04;1696473;83;21051;-70
2021/09/19 01:10:43;;;;;;;4.70;1.37;;;;;;;12.73;78.20;98683.06;1729709;82;20984;-70
2021/09/19 01:13:11;;;;;;;2.55;1.10;;;;;;;12.66;78.34;98681.33;1726804;82;21573;-70
2021/09/19 01:15:37;;;;;;;2.67;1.35;;;;;;;12.62;78.46;98681.70;1732502;81;21016;-70
2021/09/19 01:18:06;;;;;;;2.17;1.20;;;;;;;12.61;78.47;98679.52;1697832;82;21047;-70
2021/09/19 01:20:33;;;;;;;2.87;1.10;;;;;;;12.58;78.58;98683.43;1710168;82;20992;-70
2021/09/19 01:23:10;;;;;;;2.02;1.10;;;;;;;12.54;78.79;98679.73;1732866;82;21058;-70
2021/09/19 01:25:39;;;;;;;2.10;1.17;;;;;;;12.50;78.98;98680.09;1640430;86;21941;-70
2021/09/19 01:28:08;;;;;;;2.40;1.05;;;;;;;12.54;78.95;98677.00;1716911;82;21078;-70
2021/09/19 01:30:35;;;;;;;4.35;1.10;;;;;;;12.58;78.92;98670.59;1717019;82;21494;-70
2021/09/19 01:33:03;;;;;;;2.12;1.07;;;;;;;12.63;78.91;98665.57;1709989;82;21055;-70
2021/09/19 01:35:30;;;;;;;2.22;1.20;;;;;;;12.59;79.02;98670.84;1712066;82;21020;-69
2021/09/19 01:37:58;;;;;;;2.72;1.32;;;;;;;12.55;79.16;98671.77;1710867;82;21653;-69
2021/09/19 01:40:25;;;;;;;2.60;1.20;;;;;;;12.56;79.18;98670.66;1712962;82;21486;-69
2021/09/19 01:42:51;;;;;;;1.77;1.02;;;;;;;12.59;79.04;98665.39;1735304;82;21003;-69
2021/09/19 01:45:18;;;;;;;3.58;1.00;;;;;;;12.58;78.95;98663.77;1727082;82;21518;-69
2021/09/19 01:47:45;;;;;;;2.35;1.20;;;;;;;12.51;79.13;98662.03;1716703;82;21067;-71
2021/09/19 01:50:13;;;;;;;1.80;0.93;;;;;;;12.45;79.36;98659.99;1724613;82;21008;-69
2021/09/19 01:52:40;;;;;;;4.62;1.00;;;;;;;12.43;79.45;98660.84;1721478;82;21095;-69
2021/09/19 01:55:08;;;;;;;1.92;1.10;;;;;;;12.48;79.33;98659.92;1738058;82;21011;-68
2021/09/19 01:57:35;;;;;;;2.92;1.00;;;;;;;12.51;79.33;98657.94;1726557;82;21593;-69
2021/09/19 02:00:01;;;;;;;1.85;1.10;;;;;;;12.56;79.45;98659.19;1722152;82;21451;-69
2021/09/19 02:02:29;;;;;;;2.52;0.90;;;;;;;12.58;79.64;98654.77;1724564;81;21056;-69
2021/09/19 02:04:57;;;;;;;2.40;1.22;;;;;;;12.60;79.76;98661.55;1712299;83;21032;-69
2021/09/19 02:07:23;;;;;;;4.03;1.17;;;;;;;12.67;79.68;98666.56;1735683;82;21103;-69
2021/09/19 02:09:50;;;;;;;2.47;0.98;;;;;;;12.73;79.40;98659.86;1719781;82;20972;-69
2021/09/19 02:12:16;;;;;;;3.33;1.30;;;;;;;12.70;79.28;98664.02;1726092;82;21052;-69
2021/09/19 02:14:44;;;;;;;1.72;1.02;;;;;;;12.63;79.44;98658.75;1725690;82;21019;-69
2021/09/19 02:17:11;;;;;;;4.72;1.27;;;;;;;12.58;79.67;98652.03;1723741;82;21039;-69
2021/09/19 02:19:40;;;;;;;2.35;1.17;;;;;;;12.61;79.72;98652.80;1733510;82;20967;-69
2021/09/19 02:22:10;;;;;;;1.50;1.00;;;;;;;12.70;79.59;98649.56;1733010;82;21513;-69
2021/09/19 02:24:36;;;;;;;3.55;1.10;;;;;;;12.77;79.48;98650.73;1723988;82;20983;-69
2021/09/19 02:27:03;;;;;;;1.85;1.17;;;;;;;12.82;79.51;98653.32;1718598;82;21082;-69
2021/09/19 02:29:31;;;;;;;3.08;1.22;;;;;;;12.82;79.66;98642.98;1694640;83;20992;-69
2021/09/19 02:31:58;;;;;;;3.05;1.37;;;;;;;12.87;79.59;98650.47;1739633;82;21015;-69
2021/09/19 02:34:24;;;;;;;2.30;1.30;;;;;;;12.96;79.32;98653.27;1742566;82;21015;-69
2021/09/19 02:36:50;;;;;;;;;;;;;;;12.98;79.27;98655.92;1732363;82;21059;-69
2021/09/19 02:39:17;;;;;;;2.25;1.22;;;;;;;12.95;79.34;98651.09;1726819;82;20145;-69
2021/09/19 02:41:43;;;;;;;2.22;1.30;;;;;;;12.86;79.69;98652.95;1741387;82;21106;-69
2021/09/19 02:44:11;;;;;;;3.75;1.40;;;;;;;12.89;79.66;98653.69;1718112;82;21657;-69
2021/09/19 02:46:39;;;;;;;1.45;0.98;;;;;;;12.95;79.42;98647.55;1719585;82;21071;-69
2021/09/19 02:49:07;;;;;;;2.37;1.20;;;;;;;12.99;79.21;98648.53;1720278;82;21082;-70
2021/09/19 02:51:34;;;;;;;2.55;1.27;;;;;;;12.99;79.13;98648.53;1732382;82;21024;-70
2021/09/19 02:54:00;;;;;;;1.50;1.10;;;;;;;12.98;79.25;98646.91;1735104;82;21035;-70
2021/09/19 02:56:28;;;;;;;2.10;1.10;;;;;;;12.95;79.34;98651.09;1745273;82;21481;-70
2021/09/19 02:58:56;;;;;;;2.98;1.20;;;;;;;12.97;79.33;98656.22;1744797;82;21012;-70
2021/09/19 03:01:23;;;;;;;2.70;1.20;;;;;;;13.03;79.15;98652.25;1728226;82;21035;-70
2021/09/19 03:03:51;;;;;;;1.60;1.00;;;;;;;13.08;79.04;98654.84;1734646;82;21031;-70
2021/09/19 03:06:21;;;;;;;1.90;1.02;;;;;;;13.07;78.98;98653.80;1740515;82;21090;-70
2021/09/19 03:08:46;;;;;;;2.05;1.15;;;;;;;13.02;79.17;98656.66;1682874;85;21079;-70
2021/09/19 03:11:13;;;;;;;4.67;1.40;;;;;;;13.02;79.27;98654.73;1674481;84;21764;-70
2021/09/19 03:13:40;;;;;;;3.60;1.15;;;;;;;13.08;79.08;98652.10;1676435;84;21106;-70
2021/09/19 03:16:06;;;;;;;2.87;1.35;;;;;;;13.10;78.99;98654.01;1687348;84;21123;-70
2021/09/19 03:18:32;;;;;;;;;;;;;;;13.10;78.93;98655.94;1693884;83;21108;-69
2021/09/19 03:21:00;;;;;;;;;;;;;;;13.02;79.09;98649.27;1706888;83;20141;-68
2021/09/19 03:23:26;;;;;;;3.02;1.50;;;;;;;12.92;79.48;98650.91;1693374;83;20147;-68
2021/09/19 03:25:52;;;;;;;2.15;1.30;;;;;;;12.85;79.70;98645.08;1691890;83;21108;-69
2021/09/19 03:28:19;;;;;;;3.05;1.22;;;;;;;12.88;79.54;98652.65;1691288;85;21089;-68
2021/09/19 03:30:47;;;;;;;2.37;1.32;;;;;;;12.91;79.43;98652.83;1691936;83;21041;-68
2021/09/19 03:33:14;;;;;;;2.42;1.25;;;;;;;12.95;79.39;98651.64;1711940;83;21028;-69
2021/09/19 03:35:40;;;;;;;2.22;1.32;;;;;;;12.95;79.45;98655.73;1718971;83;21025;-69
2021/09/19 03:38:06;;;;;;;3.30;1.50;;;;;;;12.91;79.62;98656.92;1700533;83;21100;-69
2021/09/19 03:40:33;;;;;;;2.35;1.57;;;;;;;12.92;79.57;98650.91;1702360;83;20985;-69
2021/09/19 03:42:59;;;;;;;3.20;1.57;;;;;;;12.95;79.52;98647.55;1701775;83;21182;-69
2021/09/19 03:45:29;;;;;;;3.42;1.52;;;;;;;12.97;79.53;98644.73;1715946;83;21068;-69
2021/09/19 03:47:58;;;;;;;3.33;1.80;;;;;;;12.97;79.72;98648.02;1719946;83;21084;-69
2021/09/19 03:50:25;;;;;;;3.27;1.85;;;;;;;12.93;79.88;98647.06;1713727;83;21080;-69
2021/09/19 03:52:52;;;;;;;3.55;1.90;;;;;;;12.93;79.89;98651.16;1695483;83;21602;-69
2021/09/19 03:55:18;;;;;;;3.02;1.82;;;;;;;12.98;79.79;98651.02;1693179;83;21056;-69
2021/09/19 03:57:44;;;;;;;2.75;1.80;;;;;;;13.00;79.82;98649.34;1693670;83;21057;-69
2021/09/19 04:00:13;;;;;;;3.42;2.02;;;;;;;12.97;79.98;98649.39;1691118;85;21084;-69
2021/09/19 04:02:39;;;;;;;5.45;2.00;;;;;;;12.90;80.20;98648.47;1713369;83;21077;-69
2021/09/19 04:05:08;;;;;;;3.62;1.80;;;;;;;12.91;80.30;98653.38;1706210;83;21489;-69
2021/09/19 04:07:35;;;;;;;3.45;2.05;;;;;;;12.95;80.19;98647.55;1702507;83;21073;-69
2021/09/19 04:10:02;;;;;;;3.35;1.95;;;;;;;12.98;80.16;98651.82;1691951;83;21097;-69
2021/09/19 04:12:29;;;;;;;3.70;2.02;;;;;;;12.96;80.23;98647.25;1694451;83;21088;-69
2021/09/19 04:14:57;;;;;;;4.10;2.70;;;;;;;12.93;80.50;98656.62;1709562;83;21057;-69
2021/09/19 04:17:26;;;;;;;2.98;1.90;;;;;;;12.93;80.61;98647.84;1706327;83;21081;-69
2021/09/19 04:19:52;;;;;;;4.95;2.45;;;;;;;12.96;80.37;98650.53;1693274;83;21080;-69
2021/09/19 04:22:20;;;;;;;4.03;2.00;;;;;;;12.93;80.31;98647.06;1691364;83;21096;-69
2021/09/19 04:24:46;;;;;;;3.25;2.12;;;;;;;12.84;80.55;98649.73;1696085;83;21025;-69
2021/09/19 04:27:13;;;;;;;3.22;1.95;;;;;;;12.87;80.78;98647.74;1708458;83;21136;-69
2021/09/19 04:29:39;;;;;;;7.55;2.37;;;;;;;12.93;80.72;98638.28;1707095;83;21012;-69
2021/09/19 04:32:06;;;;;;;4.17;2.00;;;;;;;12.98;80.71;98649.09;1714041;83;21583;-69
2021/09/19 04:34:32;;;;;;;;;;;;;;;13.00;80.82;98640.59;1695636;83;21567;-69
2021/09/19 04:37:00;;;;;;;4.40;2.40;;;;;;;12.97;81.00;98639.83;1700431;83;20166;-69
2021/09/19 04:39:27;;;;;;;3.05;1.95;;;;;;;12.97;81.09;98646.11;1663771;84;21449;-69
2021/09/19 04:41:55;;;;;;;7.92;2.25;;;;;;;13.03;81.10;98640.52;1671486;84;21086;-69
2021/09/19 04:44:22;;;;;;;3.75;2.22;;;;;;;13.08;81.01;98645.83;1696442;84;21052;-69
2021/09/19 04:46:48;;;;;;;5.72;2.30;;;;;;;13.01;80.94;98642.73;1701543;83;21089;-69
2021/09/19 04:49:15;;;;;;;6.12;2.85;;;;;;;12.97;81.14;98648.83;1672783;84;21598;-69
2021/09/19 04:51:42;;;;;;;4.90;3.20;;;;;;;13.00;81.00;98650.16;1673621;84;21647;-68
2021/09/19 04:54:08;;;;;;;5.95;2.42;;;;;;;13.02;80.88;98649.27;1711482;83;21643;-69
2021/09/19 04:56:35;;;;;;;3.87;2.27;;;;;;;13.01;80.90;98653.67;1677625;84;21651;-69
2021/09/19 04:59:01;;;;;;;6.40;2.60;;;;;;;12.94;80.83;98654.12;1695022;84;21563;-69
2021/09/19 05:01:27;;;;;;;3.83;1.90;;;;;;;12.93;80.80;98652.53;1679834;84;21125;-69
2021/09/19 05:03:54;;;;;;;2.95;1.80;;;;;;;12.99;80.55;98645.80;1715564;83;21061;-68
2021/09/19 05:06:20;;;;;;;7.65;3.00;;;;;;;13.08;80.41;98646.64;1696659;83;21033;-69
2021/09/19 05:08:48;;;;;;;6.28;3.10;;;;;;;13.14;80.43;98648.17;1671289;84;21123;-69
2021/09/19 05:11:15;;;;;;;5.50;3.40;;;;;;;13.17;80.61;98646.17;1689315;84;21502;-69
2021/09/19 05:13:41;;;;;;;5.05;3.50;;;;;;;13.23;80.55;98648.19;1690832;84;21106;-69
2021/09/19 05:16:08;;;;;;;4.95;3.45;;;;;;;13.30;80.42;98647.17;1672167;84;21119;-69
2021/09/19 05:18:34;;;;;;;;;;;;;;;13.37;80.33;98646.96;1729561;82;21035;-69
2021/09/19 05:21:02;;;;;;;4.10;2.87;;;;;;;13.43;80.26;98648.98;1733416;82;20149;-69
2021/09/19 05:23:30;;;;;;;6.12;3.00;;;;;;;13.42;80.62;98649.56;1731224;82;21046;-69
2021/09/19 05:25:56;;;;;;;3.83;2.60;;;;;;;13.48;79.99;98649.41;1739316;82;21130;-69
2021/09/19 05:28:22;;;;;;;4.85;3.08;;;;;;;13.57;79.64;98644.20;1659914;85;21642;-69
2021/09/19 05:30:49;;;;;;;4.28;2.72;;;;;;;13.64;79.36;98643.77;1727034;82;21046;-69
2021/09/19 05:33:15;;;;;;;4.87;2.60;;;;;;;13.61;79.13;98643.81;1750191;82;21062;-69
2021/09/19 05:35:41;;;;;;;3.87;2.50;;;;;;;13.56;79.15;98640.44;1728588;82;20967;-69
2021/09/19 05:38:09;;;;;;;3.60;2.87;;;;;;;13.56;79.04;98640.44;1743484;82;21506;-68
2021/09/19 05:40:35;;;;;;;5.62;3.25;;;;;;;13.56;79.07;98637.70;1752745;82;20999;-69
2021/09/19 05:43:03;;;;;;;3.72;2.37;;;;;;;13.45;79.38;98635.82;1749136;82;21466;-69
2021/09/19 05:45:31;;;;;;;4.12;2.50;;;;;;;13.41;79.85;98638.94;1740673;80;20971;-69
2021/09/19 05:47:58;;;;;;;5.78;2.85;;;;;;;13.48;79.98;98637.11;1737710;82;21007;-69
2021/09/19 05:50:24;;;;;;;4.17;2.58;;;;;;;13.46;79.98;98640.95;1743279;82;20927;-69
2021/09/19 05:52:52;;;;;;;3.80;2.55;;;;;;;13.43;80.15;98640.78;1742806;82;21070;-69
2021/09/19 05:55:19;;;;;;;3.70;2.25;;;;;;;13.37;79.92;98635.22;1747218;82;21092;-69
2021/09/19 05:57:47;;;;;;;5.95;1.82;;;;;;;13.33;79.84;98636.41;1752982;82;21004;-69
2021/09/19 06:00:14;;;;;;;3.70;1.70;;;;;;;13.25;79.59;98633.08;1753238;82;21011;-68
2021/09/19 06:02:42;;;;;;;3.30;1.85;;;;;;;13.18;79.85;98627.84;1740263;82;21051;-69
2021/09/19 06:05:10;;;;;;;4.85;1.70;;;;;;;13.21;79.90;98634.86;1725383;82;21616;-69
2021/09/19 06:07:37;;;;;;;3.58;1.92;;;;;;;13.23;79.69;98638.06;1723323;82;21541;-68
2021/09/19 06:10:05;;;;;;;3.67;1.98;;;;;;;13.21;79.65;98636.22;1723142;83;21565;-69
2021/09/19 06:12:31;;;;;;;3.25;1.57;;;;;;;13.16;79.88;98639.08;1722950;83;21035;-69
2021/09/19 06:14:59;;;;;;;4.30;1.98;;;;;;;13.19;79.93;98635.72;1723835;82;21133;-68
2021/09/19 06:17:25;;;;;;;2.65;1.60;;;;;;;13.20;79.76;98635.97;1725574;82;21042;-69
2021/09/19 06:19:52;;;;;;;3.87;1.50;;;;;;;13.17;79.64;98630.33;1723518;83;21088;-69
2021/09/19 06:22:18;;;;;;;3.65;1.30;;;;;;;13.07;79.44;98636.85;1724032;82;21047;-68
2021/09/19 06:24:44;;;;;;;4.17;1.70;;;;;;;13.04;79.52;98637.45;1733895;82;21035;-69
2021/09/19 06:27:12;;;;;;;1.82;1.00;;;;;;;13.10;79.69;98636.25;1729313;82;21066;-69
2021/09/19 06:29:40;;;;;;;2.52;1.12;;;;;;;13.13;79.29;98636.17;1742746;82;21066;-67
2021/09/19 06:32:09;;;;;;;3.02;1.00;;;;;;;13.06;79.05;98631.13;1748408;82;20995;-67
2021/09/19 06:34:38;;;;;;;2.22;1.00;;;;;;;13.05;78.94;98630.07;1752300;82;21122;-67
2021/09/19 06:37:05;;;;;;;1.77;1.00;;;;;;;13.09;78.87;98629.16;1751202;82;21035;-68
2021/09/19 06:39:31;;;;;;;3.02;1.10;;;;;;;13.06;79.00;98635.23;1753234;82;21058;-67
2021/09/19 06:41:59;;;;;;;1.82;0.82;;;;;;;13.07;78.98;98627.84;1727290;82;21126;-66
2021/09/19 06:44:26;;;;;;;3.02;0.88;;;;;;;13.12;78.81;98625.80;1723569;83;21042;-67
2021/09/19 06:46:56;;;;;;;;;;;;;;;13.16;78.85;98619.95;1736472;82;21082;-68
2021/09/19 06:49:20;;;;;;;3.67;1.02;;;;;;;13.16;78.95;98620.52;1729700;82;20105;-67
2021/09/19 06:51:48;;;;;;;2.05;0.95;;;;;;;13.16;79.09;98622.69;1668591;85;21087;-67
2021/09/19 06:54:15;;;;;;;2.58;1.25;;;;;;;13.18;79.08;98627.84;1723171;83;21106;-68
2021/09/19 06:56:43;;;;;;;3.62;1.90;;;;;;;13.14;79.23;98624.94;1736176;82;20983;-67
2021/09/19 06:59:10;;;;;;;4.08;1.87;;;;;;;13.16;79.21;98624.61;1751736;82;21549;-67
2021/09/19 07:01:36;;;;;;;;;;;;;;;13.15;79.18;98622.44;1725921;82;21578;-67
2021/09/19 07:04:03;;;;;;;2.33;1.42;;;;;;;13.12;79.49;98624.44;1730604;82;20101;-67
2021/09/19 07:06:29;;;;;;;1.85;1.40;;;;;;;13.12;79.62;98616.80;1735508;82;20991;-67
2021/09/19 07:08:57;;;;;;;2.40;1.50;;;;;;;13.20;79.73;98614.66;1723188;83;21022;-68
2021/09/19 07:11:25;;;;;;;5.55;1.87;;;;;;;13.25;79.64;98613.17;1745754;82;21027;-67
2021/09/19 07:13:53;;;;;;;3.27;1.47;;;;;;;13.23;79.81;98614.84;1745217;82;21043;-68
2021/09/19 07:16:20;;;;;;;2.62;1.60;;;;;;;13.28;80.06;98614.71;1741791;82;21043;-68
2021/09/19 07:18:46;;;;;;;3.87;1.95;;;;;;;13.39;80.10;98609.17;1710059;82;20988;-67
2021/09/19 07:21:14;;;;;;;3.95;1.60;;;;;;;13.48;80.05;98617.97;1711659;82;21075;-67
2021/09/19 07:23:40;;;;;;;4.17;1.70;;;;;;;13.49;80.29;98617.66;1713362;82;21035;-68
2021/09/19 07:26:07;;;;;;;4.80;2.30;;;;;;;13.56;80.24;98613.09;1723180;82;21039;-67
2021/09/19 07:28:34;;;;;;;3.25;2.33;;;;;;;13.66;80.09;98610.86;1709632;84;20975;-67
2021/09/19 07:31:00;;;;;;;;;;;;;;;13.74;80.11;98610.08;1712387;84;21095;-68
2021/09/19 07:33:28;;;;;;;5.42;3.20;;;;;;;13.76;80.18;98610.55;1730075;82;20134;-67
2021/09/19 07:35:55;;;;;;;3.22;2.33;;;;;;;13.74;80.32;98611.45;1726426;82;21079;-67
2021/09/19 07:38:22;;;;;;;4.55;2.80;;;;;;;13.82;80.08;98616.11;1724139;82;21483;-69
2021/09/19 07:40:51;;;;;;;4.15;2.70;;;;;;;13.85;79.74;98612.73;1729206;82;21020;-68
2021/09/19 07:43:17;;;;;;;4.70;2.47;;;;;;;13.82;79.67;98616.11;1617141;87;21047;-68
2021/09/19 07:45:44;;;;;;;4.47;2.70;;;;;;;13.90;79.77;98615.88;1712149;82;20996;-68
2021/09/19 07:48:13;;;;;;;3.52;2.37;;;;;;;14.02;79.58;98612.52;1708198;82;20964;-68
2021/09/19 07:50:39;;;;;;;3.87;2.40;;;;;;;14.06;79.47;98619.77;1735845;82;21043;-68
2021/09/19 07:53:06;;;;;;;6.15;2.77;;;;;;;14.12;79.43;98611.64;1739167;82;21534;-68
2021/09/19 07:55:33;;;;;;;;;;;;;;;14.22;79.32;98611.31;1738144;82;21537;-67
2021/09/19 07:58:00;;;;;;;4.35;2.90;;;;;;;14.24;79.09;98616.48;1737299;82;20139;-68
2021/09/19 08:00:26;;;;;;;4.60;3.02;;;;;;;14.17;79.24;98623.00;1738962;82;21513;-68
2021/09/19 08:02:54;;;;;;;;;;;;;;;14.15;79.30;98616.46;1723484;82;21515;-68
2021/09/19 08:05:22;;;;;;;4.53;2.98;;;;;;;14.18;79.00;98613.08;1736239;82;20115;-68
2021/09/19 08:07:48;;;;;;;4.45;3.10;;;;;;;14.17;79.18;98614.78;1728044;82;21467;-68
2021/09/19 08:10:17;;;;;;;5.17;3.55;;;;;;;14.19;79.28;98609.22;1640413;86;21047;-68
2021/09/19 08:12:48;;;;;;;6.87;3.85;;;;;;;14.17;79.37;98607.35;1671487;85;21054;-68
2021/09/19 08:15:16;;;;;;;5.53;3.70;;;;;;;14.17;79.30;98613.41;1692122;84;21494;-68
2021/09/19 08:17:43;;;;;;;4.47;3.10;;;;;;;14.22;79.25;98606.39;1698221;83;21110;-67
2021/09/19 08:20:11;;;;;;;6.65;3.35;;;;;;;14.21;79.30;98597.38;1682627;84;21103;-67
2021/09/19 08:22:38;;;;;;;4.95;3.40;;;;;;;14.27;79.62;98593.92;1728999;81;21030;-68
2021/09/19 08:25:07;;;;;;;4.20;3.15;;;;;;;14.42;79.60;98594.25;1745266;81;21043;-68
2021/09/19 08:27:37;;;;;;;6.58;3.87;;;;;;;14.57;79.72;98591.56;1714214;82;21035;-68
2021/09/19 08:32:00;;;;;;;5.35;3.62;;;;;;;14.82;79.63;98587.16;1797746;79;22800;-69
2021/09/19 08:34:27;;;;;;;5.37;3.92;;;;;;;14.82;79.37;98585.22;1756953;81;21014;-69
2021/09/19 08:36:53;;;;;;;;;;;;;;;14.91;79.33;98583.84;1698163;84;21109;-69
2021/09/19 08:39:19;;;;;;;6.30;3.98;;;;;;;15.03;79.18;98594.09;1682739;84;20153;-69
2021/09/19 08:41:50;;;;;;;7.85;3.90;;;;;;;14.95;79.18;98588.31;1690319;84;21558;-69
2021/09/19 08:44:19;;;;;;;4.35;3.62;;;;;;;14.98;79.18;98582.77;1697124;83;21022;-68
2021/09/19 08:46:45;;;;;;;6.37;4.22;;;;;;;15.15;79.27;98580.52;1693857;83;21073;-67
2021/09/19 08:49:13;;;;;;;6.90;4.58;;;;;;;15.29;78.64;98572.87;1690911;84;21018;-67
2021/09/19 08:51:40;;;;;;;5.95;4.20;;;;;;;15.36;78.28;98567.10;1705944;83;21096;-68
2021/09/19 08:54:07;;;;;;;26.73;18.10;;;;;;;15.46;78.08;98554.94;1719538;83;21301;-68
2021/09/19 08:56:34;;;;;;;6.72;4.72;;;;;;;15.56;77.64;98553.77;1684026;84;21102;-68
2021/09/19 08:59:01;;;;;;;5.35;3.85;;;;;;;15.60;77.29;98551.41;1668799;85;21032;-69
2021/09/19 09:01:27;;;;;;;6.67;4.08;;;;;;;15.66;77.17;98542.44;1680982;84;21086;-69
2021/09/19 09:04:04;;;;;;;4.87;3.85;;;;;;;15.86;77.01;98543.00;1694538;84;21002;-68
2021/09/19 09:06:36;;;;;;;;;;;;;;;16.09;76.74;98540.70;1693064;83;21457;-68
2021/09/19 09:09:16;;;;;;;6.47;4.37;;;;;;;16.24;76.05;98545.00;1696714;84;20502;-67
2021/09/19 09:11:43;;;;;;;4.85;4.35;;;;;;;16.27;76.26;98549.81;1705394;83;21087;-67
2021/09/19 09:14:21;;;;;;;7.35;4.78;;;;;;;16.54;75.10;98542.13;1706451;83;20966;-67
2021/09/19 09:16:49;;;;;;;5.80;4.67;;;;;;;16.73;74.29;98536.92;1697161;83;21567;-68
2021/09/19 09:19:17;;;;;;;5.87;5.00;;;;;;;16.73;72.83;98538.30;1717268;83;21006;-67
2021/09/19 09:21:43;;;;;;;5.75;4.00;;;;;;;16.69;72.41;98551.11;1725350;83;21030;-68
2021/09/19 09:24:15;;;;;;;8.43;4.78;;;;;;;16.63;72.45;98581.33;1702034;83;21481;-67
2021/09/19 09:26:43;;;;;;;5.80;3.22;;;;;;;16.40;72.91;98575.40;1697690;83;21129;-67
2021/09/19 09:29:14;;;;;;;4.30;2.90;;;;;;;15.86;72.93;98574.00;1696598;84;20993;-70
2021/09/19 09:31:44;;;;;;;5.22;3.30;;;;;;;15.50;73.68;98581.16;1680930;84;21060;-68
2021/09/19 09:34:17;;;;;;;5.83;3.92;;;;;;;15.29;74.50;98590.13;1700779;84;20974;-67
2021/09/19 09:37:02;;;;;;;4.22;3.20;;;;;;;15.15;75.83;98589.55;1697015;84;21623;-67
2021/09/19 09:39:41;;;;;;;5.85;3.08;;;;;;;15.22;77.42;98593.95;1680166;84;20998;-67
2021/09/19 09:42:15;;;;;;;4.05;2.72;;;;;;;15.48;78.42;98590.27;1701423;84;21038;-67
2021/09/19 09:44:48;;;;;;;4.28;2.33;;;;;;;15.75;78.62;98585.13;1700722;83;21053;-66
2021/09/19 09:47:22;;;;;;;3.62;2.70;;;;;;;15.87;78.34;98583.03;1693449;84;21073;-65
2021/09/19 09:49:57;;;;;;;2.83;2.30;;;;;;;16.03;78.79;98582.66;1692688;84;21070;-66
2021/09/19 09:52:26;;;;;;;2.83;2.10;;;;;;;16.41;79.18;98587.97;1694999;84;21066;-67
2021/09/19 09:55:00;;;;;;;2.45;1.45;;;;;;;16.69;78.68;98593.70;1687156;84;21050;-68
2021/09/19 09:57:39;;;;;;;4.12;1.40;;;;;;;16.61;77.23;98593.23;1676897;84;21042;-69
2021/09/19 10:00:10;;;;;;;2.67;1.20;;;;;;;16.33;76.47;98601.23;1684424;84;21046;-66
2021/09/19 10:02:40;;;;;;;2.27;0.78;;;;;;;16.24;76.31;98604.04;1690309;84;21082;-66
2021/09/19 10:05:09;;;;;;;2.05;1.72;;;;;;;16.24;75.56;98599.92;1683383;84;21029;-66
2021/09/19 10:07:38;;;;;;;1.50;0.82;;;;;;;16.13;75.38;98605.58;1694348;84;21093;-67
2021/09/19 10:10:09;;;;;;;1.77;0.90;;;;;;;16.02;75.24;98609.86;1683707;84;21009;-67
2021/09/19 10:12:35;;;;;;;1.37;1.00;;;;;;;15.92;74.78;98603.41;1686076;84;21702;-68
2021/09/19 10:15:02;;;;;;;1.27;0.80;;;;;;;15.79;74.66;98606.65;1687907;84;21496;-69
2021/09/19 10:17:28;;;;;;;1.30;0.90;;;;;;;15.63;74.53;98593.82;1692308;84;21509;-67
2021/09/19 10:19:56;;;;;;;2.05;0.80;;;;;;;15.41;74.50;98600.36;1696540;83;21497;-67
2021/09/19 10:22:30;;;;;;;2.33;0.90;;;;;;;15.24;74.95;98616.34;1684735;83;21062;-67
2021/09/19 10:24:56;;;;;;;1.95;0.55;;;;;;;15.17;75.29;98615.23;1686151;84;21018;-69
2021/09/19 10:27:33;;;;;;;4.65;0.90;;;;;;;15.06;75.40;98624.95;1676008;84;21121;-68
2021/09/19 10:30:06;;;;;;;2.37;1.70;;;;;;;14.92;75.81;98623.78;1695237;84;21030;-66
2021/09/19 10:32:43;;;;;;;1.55;0.62;;;;;;;14.89;75.81;98631.30;1698853;82;21543;-66
2021/09/19 10:35:25;;;;;;;1.47;0.37;;;;;;;14.91;75.94;98625.72;1736303;82;21569;-65
2021/09/19 10:38:06;;;;;;;1.27;0.47;;;;;;;14.96;75.99;98627.48;1730780;82;21073;-67
2021/09/19 10:40:39;;;;;;;0.82;0.45;;;;;;;14.95;76.12;98631.34;1676221;85;21611;-72
2021/09/19 10:43:11;;;;;;;1.17;0.40;;;;;;;14.98;75.98;98630.72;1674332;85;21479;-72
2021/09/19 10:45:43;;;;;;;4.83;0.50;;;;;;;15.01;75.46;98632.00;1670064;85;21672;-73
2021/09/19 10:48:28;;;;;;;2.60;0.80;;;;;;;14.93;75.53;98637.17;1689846;84;21064;-72
2021/09/19 10:51:08;;;;;;;1.30;0.60;;;;;;;14.94;75.77;98628.39;1737668;82;21503;-75
2021/09/19 10:53:46;;;;;;;1.15;0.60;;;;;;;14.98;74.95;98632.09;1722348;82;21049;-73
2021/09/19 10:56:14;;;;;;;0.50;0.30;;;;;;;14.60;74.67;98605.17;1728946;82;21093;-71
2021/09/19 10:58:46;;;;;;;0.60;0.40;;;;;;;14.73;75.34;98640.61;1729364;82;21421;-73
2021/09/19 11:01:20;;;;;;;0.37;0.25;;;;;;;14.83;75.25;98638.89;1730198;82;21026;-71
2021/09/19 11:03:49;;;;;;;0.70;0.30;;;;;;;14.84;75.01;98639.11;1736182;82;20938;-71
2021/09/19 11:06:30;;;;;;;4.58;0.40;;;;;;;14.78;75.25;98638.25;1739433;82;21018;-71
2021/09/19 11:08:57;;;;;;;2.35;0.60;;;;;;;14.80;75.34;98641.48;1730043;82;21014;-69
2021/09/19 11:11:26;;;;;;;2.47;1.50;;;;;;;14.77;74.44;98642.91;1734466;82;21034;-69
2021/09/19 11:13:58;;;;;;;1.20;0.60;;;;;;;14.71;75.26;98646.16;1724825;82;21031;-69
2021/09/19 11:16:30;;;;;;;0.60;0.40;;;;;;;14.79;75.61;98649.45;1718758;82;21112;-71
2021/09/19 11:19:01;;;;;;;0.50;0.30;;;;;;;14.90;75.29;98645.24;1725129;82;21069;-72
2021/09/19 11:21:34;;;;;;;1.27;0.45;;;;;;;14.94;75.32;98647.02;1744736;82;21070;-72
2021/09/19 11:24:06;;;;;;;0.60;0.30;;;;;;;14.97;75.54;98644.17;1721784;82;21046;-74
2021/09/19 11:26:44;;;;;;;0.62;0.30;;;;;;;15.01;75.43;98638.28;1725432;82;21014;-74
2021/09/19 11:29:15;;;;;;;2.10;0.30;;;;;;;15.02;75.03;98637.72;1721074;82;21002;-74
2021/09/19 11:31:43;;;;;;;0.85;0.30;;;;;;;14.96;75.18;98642.56;1729913;81;21015;-73
2021/09/19 11:34:14;;;;;;;1.25;0.40;;;;;;;14.90;75.28;98637.02;1732845;82;20972;-73
2021/09/19 11:36:49;;;;;;;0.72;0.40;;;;;;;14.90;75.43;98636.46;1738318;82;21083;-73
2021/09/19 11:39:16;;;;;;;1.90;0.30;;;;;;;15.01;75.41;98630.63;1707420;82;21451;-74
2021/09/19 11:41:43;;;;;;;1.02;0.42;;;;;;;15.09;75.28;98631.95;1746293;82;21070;-74
2021/09/19 11:44:14;;;;;;;0.53;0.30;;;;;;;15.16;75.31;98631.47;1725574;82;22098;-74